createdAt,value
2023-05-05T00:01:01.032Z,59.10
2023-05-05T00:03:30.043Z,58.80
2023-05-05T00:05:59.628Z,58.80
2023-05-05T00:08:28.974Z,59.50
2023-05-05T00:10:57.605Z,59.20
2023-05-05T00:13:26.022Z,58.90
2023-05-05T00:15:55.132Z,59.60
2023-05-05T00:18:23.230Z,59.30
2023-05-05T00:20:51.506Z,58.90
2023-05-05T00:23:21.110Z,59.20
2023-05-05T00:25:49.177Z,60.00
2023-05-05T00:28:17.212Z,60.40
2023-05-05T00:30:46.237Z,60.40
2023-05-05T00:33:14.323Z,60.20
2023-05-05T00:35:42.427Z,60.60
2023-05-05T00:38:10.608Z,60.80
2023-05-05T00:40:40.068Z,61.00
2023-05-05T00:43:08.644Z,61.10
2023-05-05T00:45:39.053Z,61.20
2023-05-05T00:48:07.998Z,61.20
2023-05-05T00:50:36.602Z,61.50
2023-05-05T00:53:05.869Z,61.80
2023-05-05T00:55:35.394Z,61.30
2023-05-05T00:58:05.108Z,61.70
2023-05-05T01:00:33.397Z,61.70
2023-05-05T01:03:01.664Z,61.70
2023-05-05T01:05:36.619Z,62.10
2023-05-05T01:08:25.120Z,62.60
2023-05-05T01:10:58.496Z,62.30
2023-05-05T01:13:38.438Z,62.70
2023-05-05T01:16:13.890Z,63.10
2023-05-05T01:18:51.288Z,63.20
2023-05-05T01:21:27.145Z,63.50
2023-05-05T01:24:37.227Z,63.50
2023-05-05T01:27:47.881Z,63.80
2023-05-05T01:30:34.921Z,64.10
2023-05-05T01:33:09.266Z,64.00
2023-05-05T01:35:42.393Z,63.70
2023-05-05T01:38:16.162Z,64.10
2023-05-05T01:40:49.231Z,64.60
2023-05-05T01:43:21.118Z,65.00
2023-05-05T01:45:50.058Z,65.00
2023-05-05T01:48:21.611Z,64.10
2023-05-05T01:50:51.609Z,64.90
2023-05-05T01:53:21.272Z,65.50
2023-05-05T01:55:52.085Z,65.80
2023-05-05T01:58:22.662Z,65.80
2023-05-05T02:00:52.440Z,66.10
2023-05-05T02:03:23.887Z,65.80
2023-05-05T02:05:54.720Z,66.00
2023-05-05T02:08:23.817Z,65.80
2023-05-05T02:10:53.045Z,66.20
2023-05-05T02:13:23.398Z,66.40
2023-05-05T02:15:53.047Z,66.50
2023-05-05T02:18:23.521Z,66.70
2023-05-05T02:20:53.160Z,66.90
2023-05-05T02:23:21.458Z,67.10
2023-05-05T02:25:53.692Z,67.20
2023-05-05T02:28:24.101Z,67.30
2023-05-05T02:30:57.982Z,67.40
2023-05-05T02:33:33.602Z,67.60
2023-05-05T02:36:06.263Z,67.70
2023-05-05T02:38:37.857Z,68.10
2023-05-05T02:41:08.656Z,68.20
2023-05-05T02:43:40.367Z,68.30
2023-05-05T02:46:09.197Z,68.30
2023-05-05T02:48:40.300Z,68.30
2023-05-05T02:51:08.694Z,68.00
2023-05-05T02:53:39.090Z,67.30
2023-05-05T02:56:22.280Z,67.10
2023-05-05T02:58:58.479Z,67.40
2023-05-05T03:01:34.017Z,67.10
2023-05-05T03:04:10.248Z,67.50
2023-05-05T03:06:49.646Z,67.40
2023-05-05T03:09:27.316Z,67.90
2023-05-05T03:12:02.059Z,68.00
2023-05-05T03:14:37.284Z,68.10
2023-05-05T03:17:07.776Z,68.30
2023-05-05T03:19:39.879Z,68.40
2023-05-05T03:22:08.026Z,68.70
2023-05-05T03:24:37.395Z,69.10
2023-05-05T03:27:09.150Z,69.00
2023-05-05T03:29:39.831Z,69.30
2023-05-05T03:32:12.527Z,69.40
2023-05-05T03:34:43.206Z,69.50
2023-05-05T03:37:11.339Z,69.70
2023-05-05T03:39:41.409Z,69.80
2023-05-05T03:42:10.809Z,70.00
2023-05-05T03:44:38.814Z,70.00
2023-05-05T03:47:07.095Z,70.20
2023-05-05T03:49:37.841Z,70.40
2023-05-05T03:52:07.536Z,70.60
2023-05-05T03:54:36.473Z,70.70
2023-05-05T03:57:04.542Z,70.80
2023-05-05T03:59:32.712Z,71.00
2023-05-05T04:02:00.927Z,71.10
2023-05-05T04:04:29.097Z,71.40
2023-05-05T04:06:57.238Z,71.80
2023-05-05T04:09:27.065Z,72.00
2023-05-05T04:11:55.290Z,72.30
2023-05-05T04:14:23.559Z,72.40
2023-05-05T04:16:52.631Z,72.60
2023-05-05T04:19:21.097Z,72.80
2023-05-05T04:21:50.399Z,72.90
2023-05-05T04:24:22.958Z,73.10
2023-05-05T04:26:52.556Z,73.30
2023-05-05T04:29:21.622Z,73.40
2023-05-05T04:31:50.029Z,73.50
2023-05-05T04:34:18.309Z,73.70
2023-05-05T04:36:46.663Z,73.90
2023-05-05T04:39:15.286Z,74.00
2023-05-05T04:41:43.439Z,74.00
2023-05-05T04:44:12.871Z,74.00
2023-05-05T04:46:41.413Z,74.10
2023-05-05T04:49:09.558Z,74.20
2023-05-05T04:51:37.645Z,74.30
2023-05-05T04:54:05.689Z,74.50
2023-05-05T04:56:33.848Z,74.70
2023-05-05T04:59:01.902Z,74.80
2023-05-05T05:01:31.689Z,75.00
2023-05-05T05:04:00.049Z,75.20
2023-05-05T05:06:29.280Z,75.40
2023-05-05T05:08:57.464Z,75.60
2023-05-05T05:11:25.512Z,75.70
2023-05-05T05:13:54.060Z,75.70
2023-05-05T05:16:22.268Z,75.90
2023-05-05T05:18:51.848Z,76.00
2023-05-05T05:21:19.940Z,76.00
2023-05-05T05:23:48.082Z,76.00
2023-05-05T05:26:16.506Z,76.00
2023-05-05T05:28:44.598Z,76.00
2023-05-05T05:31:13.341Z,76.20
2023-05-05T05:33:41.676Z,76.30
2023-05-05T05:36:11.837Z,76.40
2023-05-05T05:38:39.889Z,76.40
2023-05-05T05:41:08.480Z,76.50
2023-05-05T05:43:38.565Z,76.50
2023-05-05T05:46:09.068Z,76.50
2023-05-05T05:48:38.815Z,76.80
2023-05-05T05:51:06.953Z,76.80
2023-05-05T05:53:36.401Z,76.50
2023-05-05T05:56:04.835Z,76.80
2023-05-05T05:58:32.850Z,77.10
2023-05-05T06:01:01.013Z,77.20
2023-05-05T06:03:30.891Z,77.40
2023-05-05T06:06:01.965Z,77.50
2023-05-05T06:08:30.620Z,77.60
2023-05-05T06:11:01.107Z,77.70
2023-05-05T06:13:29.137Z,77.90
2023-05-05T06:15:57.303Z,78.10
2023-05-05T06:18:25.498Z,78.20
2023-05-05T06:20:53.603Z,78.10
2023-05-05T06:23:25.056Z,78.10
2023-05-05T06:25:59.846Z,78.10
2023-05-05T06:28:27.832Z,78.10
2023-05-05T06:30:56.470Z,78.10
2023-05-05T06:33:24.511Z,78.00
2023-05-05T06:35:53.123Z,78.00
2023-05-05T06:38:21.153Z,77.90
2023-05-05T06:40:50.487Z,77.80
2023-05-05T06:43:19.754Z,77.80
2023-05-05T06:45:54.656Z,77.50
2023-05-05T06:48:22.611Z,77.50
2023-05-05T06:50:50.603Z,77.50
2023-05-05T06:53:18.582Z,77.50
2023-05-05T06:55:48.168Z,77.30
2023-05-05T06:58:16.253Z,77.60
2023-05-05T07:00:45.801Z,77.70
2023-05-05T07:03:14.376Z,77.40
2023-05-05T07:05:42.446Z,77.50
2023-05-05T07:08:11.352Z,77.70
2023-05-05T07:10:39.479Z,77.60
2023-05-05T07:13:08.014Z,77.40
2023-05-05T07:15:36.312Z,76.80
2023-05-05T07:18:05.907Z,76.20
2023-05-05T07:20:34.110Z,75.30
2023-05-05T07:23:02.159Z,74.90
2023-05-05T07:25:30.239Z,75.40
2023-05-05T07:27:58.520Z,74.10
2023-05-05T07:30:26.676Z,75.40
2023-05-05T07:32:55.081Z,75.40
2023-05-05T07:35:24.718Z,75.30
2023-05-05T07:37:52.890Z,74.90
2023-05-05T07:40:20.947Z,74.60
2023-05-05T07:42:49.013Z,74.70
2023-05-05T07:45:17.085Z,74.80
2023-05-05T07:47:45.157Z,75.10
2023-05-05T07:50:13.250Z,75.10
2023-05-05T07:52:48.385Z,75.30
2023-05-05T07:55:21.920Z,75.40
2023-05-05T07:57:50.693Z,75.60
2023-05-05T08:00:19.841Z,75.30
2023-05-05T08:02:48.281Z,75.10
2023-05-05T08:05:16.487Z,75.00
2023-05-05T08:07:45.922Z,74.80
2023-05-05T08:10:14.138Z,74.30
2023-05-05T08:12:42.604Z,74.10
2023-05-05T08:15:11.496Z,74.20
2023-05-05T08:17:50.602Z,74.30
2023-05-05T08:20:19.398Z,74.50
2023-05-05T08:22:49.258Z,74.30
2023-05-05T08:25:17.318Z,74.30
2023-05-05T08:27:45.977Z,74.10
2023-05-05T08:30:16.567Z,74.30
2023-05-05T08:32:44.610Z,74.90
2023-05-05T08:35:12.945Z,75.00
2023-05-05T08:37:41.348Z,75.00
2023-05-05T08:40:14.003Z,74.90
2023-05-05T08:42:42.284Z,74.80
2023-05-05T08:45:11.604Z,74.60
2023-05-05T08:47:40.396Z,74.60
2023-05-05T08:50:12.117Z,74.20
2023-05-05T08:52:41.977Z,74.10
2023-05-05T08:55:16.379Z,74.70
2023-05-05T08:57:51.497Z,74.40
2023-05-05T09:00:20.785Z,74.30
2023-05-05T09:02:49.115Z,73.20
2023-05-05T09:05:17.635Z,73.10
2023-05-05T09:07:47.269Z,73.70
2023-05-05T09:10:17.074Z,73.30
2023-05-05T09:12:45.510Z,73.30
2023-05-05T09:15:15.228Z,72.70
2023-05-05T09:17:44.134Z,72.70
2023-05-05T09:20:13.499Z,72.30
2023-05-05T09:22:43.257Z,72.80
2023-05-05T09:25:12.617Z,73.20
2023-05-05T09:27:43.374Z,73.00
2023-05-05T09:30:13.660Z,71.50
2023-05-05T09:32:46.176Z,71.50
2023-05-05T09:35:14.480Z,71.90
2023-05-05T09:37:43.057Z,71.60
2023-05-05T09:40:14.198Z,71.30
2023-05-05T09:42:44.538Z,70.80
2023-05-05T09:45:28.744Z,70.70
2023-05-05T09:48:00.281Z,70.50
2023-05-05T09:50:30.718Z,70.40
2023-05-05T09:53:01.059Z,70.40
2023-05-05T09:55:30.840Z,69.80
2023-05-05T09:58:20.401Z,70.10
2023-05-05T10:00:48.770Z,70.20
2023-05-05T10:03:19.870Z,70.40
2023-05-05T10:05:50.533Z,71.20
2023-05-05T10:08:20.132Z,70.80
2023-05-05T10:10:52.028Z,70.80
2023-05-05T10:13:22.768Z,71.60
2023-05-05T10:15:52.302Z,71.50
2023-05-05T10:18:22.832Z,71.80
2023-05-05T10:20:57.995Z,72.20
2023-05-05T10:23:34.893Z,72.10
2023-05-05T10:26:06.626Z,72.00
2023-05-05T10:28:42.497Z,70.90
2023-05-05T10:31:25.928Z,71.40
2023-05-05T10:33:59.386Z,71.80
2023-05-05T10:36:28.472Z,70.70
2023-05-05T10:38:58.052Z,70.50
2023-05-05T10:41:26.595Z,69.90
2023-05-05T10:43:57.729Z,69.60
2023-05-05T10:46:27.782Z,69.90
2023-05-05T10:49:03.910Z,69.30
2023-05-05T10:51:41.507Z,68.70
2023-05-05T10:54:17.671Z,68.10
2023-05-05T10:56:47.209Z,68.30
2023-05-05T10:59:47.477Z,68.40
2023-05-05T11:02:23.604Z,68.30
2023-05-05T11:05:12.154Z,67.70
2023-05-05T11:07:40.420Z,67.30
2023-05-05T11:10:10.019Z,67.30
2023-05-05T11:13:08.153Z,67.80
2023-05-05T11:15:38.592Z,68.30
2023-05-05T11:18:08.404Z,68.40
2023-05-05T11:21:15.280Z,68.20
2023-05-05T11:23:48.121Z,68.80
2023-05-05T11:26:17.241Z,69.30
2023-05-05T11:29:03.525Z,69.50
2023-05-05T11:31:33.535Z,71.80
2023-05-05T11:34:29.794Z,72.80
2023-05-05T11:37:02.093Z,73.00
2023-05-05T11:39:50.397Z,73.80
2023-05-05T11:42:28.122Z,73.60
2023-05-05T11:44:56.352Z,74.20
2023-05-05T11:47:33.133Z,74.60
2023-05-05T11:50:18.135Z,73.70
2023-05-05T11:52:46.550Z,75.00
2023-05-05T11:55:20.056Z,75.90
2023-05-05T11:57:48.111Z,77.00
2023-05-05T12:00:17.165Z,75.60
2023-05-05T12:02:46.923Z,75.00
2023-05-05T12:05:21.046Z,75.80
2023-05-05T12:07:49.276Z,78.60
2023-05-05T12:10:24.133Z,79.60
2023-05-05T12:12:55.636Z,81.50
2023-05-05T12:15:31.278Z,84.10
2023-05-05T12:18:02.772Z,87.40
2023-05-05T12:20:33.219Z,89.30
2023-05-05T12:23:03.054Z,92.30
2023-05-05T12:25:38.986Z,95.80
2023-05-05T12:28:08.209Z,94.50
2023-05-05T12:30:36.930Z,95.80
2023-05-05T12:33:08.185Z,98.20
2023-05-05T12:35:37.006Z,97.80
2023-05-05T12:38:05.423Z,98.50
2023-05-05T12:40:47.745Z,99.10
2023-05-05T12:43:31.460Z,98.90
2023-05-05T12:46:08.931Z,98.00
2023-05-05T12:48:39.953Z,99.60
2023-05-05T12:51:19.956Z,99.60
2023-05-05T12:53:49.687Z,98.50
2023-05-05T12:56:33.925Z,98.60
2023-05-05T12:59:02.414Z,99.50
2023-05-05T13:01:30.698Z,99.50
2023-05-05T13:04:13.940Z,99.60
2023-05-05T13:06:43.973Z,98.60
2023-05-05T13:09:24.103Z,96.70
2023-05-05T13:11:52.637Z,96.10
2023-05-05T13:14:20.878Z,94.10
2023-05-05T13:16:49.049Z,97.40
2023-05-05T13:19:18.469Z,97.40
2023-05-05T13:21:46.551Z,95.10
2023-05-05T13:24:26.120Z,94.50
2023-05-05T13:26:59.568Z,95.20
2023-05-05T13:29:31.441Z,95.50
2023-05-05T13:32:00.193Z,94.20
2023-05-05T13:34:29.638Z,93.80
2023-05-05T13:36:57.757Z,92.50
2023-05-05T13:39:25.877Z,93.50
2023-05-05T13:41:54.439Z,90.90
2023-05-05T13:44:22.469Z,92.10
2023-05-05T13:46:50.634Z,92.40
2023-05-05T13:49:19.929Z,91.30
2023-05-05T13:51:49.365Z,91.70
2023-05-05T13:54:17.294Z,89.60
2023-05-05T13:56:45.384Z,90.00
2023-05-05T13:59:13.590Z,89.80
2023-05-05T14:01:41.736Z,88.00
2023-05-05T14:04:10.030Z,89.50
2023-05-05T14:06:38.150Z,89.30
2023-05-05T14:09:08.108Z,88.00
2023-05-05T14:11:36.682Z,87.00
2023-05-05T14:14:04.874Z,87.70
2023-05-05T14:16:32.985Z,88.90
2023-05-05T14:19:01.591Z,87.40
2023-05-05T14:21:29.665Z,87.30
2023-05-05T14:23:57.673Z,88.20
2023-05-05T14:26:27.246Z,88.20
2023-05-05T14:28:55.329Z,87.30
2023-05-05T14:31:23.467Z,86.80
2023-05-05T14:33:51.808Z,84.70
2023-05-05T14:36:19.931Z,86.10
2023-05-05T14:38:47.991Z,85.60
2023-05-05T14:41:16.019Z,86.30
2023-05-05T14:43:45.502Z,85.80
2023-05-05T14:46:13.784Z,85.40
2023-05-05T14:48:42.207Z,84.10
2023-05-05T14:51:10.260Z,84.80
2023-05-05T14:53:38.367Z,82.10
2023-05-05T14:56:07.251Z,83.60
2023-05-05T14:58:35.362Z,83.50
2023-05-05T15:01:05.032Z,82.90
2023-05-05T15:03:33.406Z,80.70
2023-05-05T15:06:01.520Z,82.20
2023-05-05T15:08:29.555Z,82.90
2023-05-05T15:10:57.737Z,81.40
2023-05-05T15:13:25.756Z,81.50
2023-05-05T15:15:53.841Z,81.60
2023-05-05T15:18:23.276Z,81.40
2023-05-05T15:20:51.374Z,81.10
2023-05-05T15:23:19.553Z,82.00
2023-05-05T15:25:47.681Z,81.30
2023-05-05T15:28:15.713Z,82.00
2023-05-05T15:30:43.839Z,81.70
2023-05-05T15:33:14.935Z,81.40
2023-05-05T15:35:44.449Z,82.60
2023-05-05T15:38:12.532Z,85.40
2023-05-05T15:40:40.599Z,90.40
2023-05-05T15:43:08.621Z,93.80
2023-05-05T15:45:36.652Z,99.60
2023-05-05T15:48:04.984Z,99.60
2023-05-05T15:50:33.101Z,99.60
2023-05-05T15:53:02.526Z,99.60
2023-05-05T15:55:30.580Z,99.60
2023-05-05T15:57:58.677Z,99.60
2023-05-05T16:00:26.774Z,99.60
2023-05-05T16:02:55.002Z,99.60
2023-05-05T16:05:23.372Z,99.60
2023-05-05T16:07:52.511Z,99.60
2023-05-05T16:10:22.221Z,99.60
2023-05-05T16:12:51.978Z,99.60
2023-05-05T16:15:20.276Z,99.60
2023-05-05T16:17:48.333Z,99.60
2023-05-05T16:20:16.400Z,99.60
2023-05-05T16:22:44.558Z,99.60
2023-05-05T16:25:12.665Z,99.60
2023-05-05T16:27:42.065Z,99.60
2023-05-05T16:30:12.782Z,99.60
2023-05-05T16:32:40.888Z,99.60
2023-05-05T16:35:09.588Z,99.60
2023-05-05T16:37:37.790Z,99.60
2023-05-05T16:40:07.408Z,99.60
2023-05-05T16:42:35.688Z,99.60
2023-05-05T16:45:06.862Z,99.60
2023-05-05T16:47:35.063Z,99.60
2023-05-05T16:50:03.323Z,99.60
2023-05-05T16:52:31.737Z,99.60
2023-05-05T16:54:59.708Z,99.60
2023-05-05T16:57:27.746Z,99.60
2023-05-05T16:59:57.007Z,99.60
2023-05-05T17:02:26.498Z,99.60
2023-05-05T17:04:54.489Z,99.60
2023-05-05T17:07:22.623Z,99.60
2023-05-05T17:09:51.066Z,99.60
2023-05-05T17:12:19.162Z,99.60
2023-05-05T17:14:47.315Z,99.60
2023-05-05T17:17:15.525Z,99.60
2023-05-05T17:19:45.291Z,99.60
2023-05-05T17:22:13.343Z,99.60
2023-05-05T17:24:41.412Z,99.60
2023-05-05T17:27:09.473Z,99.60
2023-05-05T17:29:40.763Z,99.60
2023-05-05T17:32:09.007Z,99.60
2023-05-05T17:34:37.192Z,99.60
2023-05-05T17:37:06.576Z,99.60
2023-05-05T17:39:34.715Z,99.60
2023-05-05T17:42:02.666Z,99.60
2023-05-05T17:44:31.470Z,99.60
2023-05-05T17:46:59.580Z,99.60
2023-05-05T17:49:27.505Z,99.60
2023-05-05T17:51:55.539Z,99.60
2023-05-05T17:54:24.962Z,99.60
2023-05-05T17:56:53.010Z,99.60
2023-05-05T17:59:20.970Z,99.60
2023-05-05T18:01:49.202Z,99.60
2023-05-05T18:04:17.511Z,99.60
2023-05-05T18:06:45.683Z,99.60
2023-05-05T18:09:14.136Z,99.60
2023-05-05T18:11:43.456Z,99.60
2023-05-05T18:14:11.732Z,99.60
2023-05-05T18:16:39.840Z,99.60
2023-05-05T18:19:07.886Z,99.60
2023-05-05T18:21:35.976Z,99.60
2023-05-05T18:24:15.635Z,99.60
2023-05-05T18:26:50.934Z,99.30
2023-05-05T18:29:19.621Z,99.60
2023-05-05T18:31:49.457Z,99.60
2023-05-05T18:34:17.812Z,99.60
2023-05-05T18:36:46.741Z,99.60
2023-05-05T18:39:15.231Z,99.60
2023-05-05T18:41:43.351Z,99.60
2023-05-05T18:44:12.819Z,99.60
2023-05-05T18:46:40.935Z,99.60
2023-05-05T18:49:08.987Z,99.60
2023-05-05T18:51:37.057Z,99.60
2023-05-05T18:54:05.367Z,99.60
2023-05-05T18:56:34.593Z,99.60
2023-05-05T18:59:02.687Z,99.60
2023-05-05T19:01:33.378Z,99.60
2023-05-05T19:04:01.411Z,99.60
2023-05-05T19:06:29.591Z,99.60
2023-05-05T19:08:57.734Z,99.60
2023-05-05T19:11:25.822Z,99.60
2023-05-05T19:13:54.448Z,99.60
2023-05-05T19:16:23.141Z,99.60
2023-05-05T19:18:54.520Z,99.60
2023-05-05T19:21:22.689Z,99.60
2023-05-05T19:23:50.770Z,99.60
2023-05-05T19:26:18.943Z,99.60
2023-05-05T19:28:46.967Z,99.60
2023-05-05T19:31:15.003Z,99.60
2023-05-05T19:33:45.695Z,99.60
2023-05-05T19:36:18.446Z,99.60
2023-05-05T19:38:46.714Z,99.60
2023-05-05T19:41:14.868Z,99.60
2023-05-05T19:43:46.170Z,99.60
2023-05-05T19:46:14.435Z,99.60
2023-05-05T19:48:42.553Z,99.60
2023-05-05T19:51:10.575Z,99.60
2023-05-05T19:53:42.716Z,99.60
2023-05-05T19:56:11.606Z,99.60
2023-05-05T19:58:57.348Z,99.60
2023-05-05T20:01:25.756Z,99.60
2023-05-05T20:03:57.158Z,99.60
2023-05-05T20:06:25.459Z,99.60
2023-05-05T20:08:55.442Z,99.60
2023-05-05T20:11:23.518Z,99.60
2023-05-05T20:13:51.913Z,99.60
2023-05-05T20:16:20.322Z,99.60
2023-05-05T20:18:48.509Z,99.60
2023-05-05T20:21:17.603Z,99.60
2023-05-05T20:23:46.399Z,99.60
2023-05-05T20:26:15.845Z,99.60
2023-05-05T20:28:45.727Z,99.60
2023-05-05T20:31:15.447Z,99.60
2023-05-05T20:33:43.844Z,99.60
2023-05-05T20:36:12.211Z,99.60
2023-05-05T20:38:40.349Z,99.20
2023-05-05T20:41:08.378Z,99.10
2023-05-05T20:43:38.634Z,99.50
2023-05-05T20:46:07.130Z,99.60
2023-05-05T20:48:35.366Z,99.60
2023-05-05T20:51:04.877Z,99.60
2023-05-05T20:53:33.323Z,98.90
2023-05-05T20:56:01.430Z,98.00
2023-05-05T20:58:30.655Z,99.10
2023-05-05T21:01:00.234Z,98.40
2023-05-05T21:03:28.477Z,98.70
2023-05-05T21:05:56.478Z,99.10
2023-05-05T21:08:24.609Z,98.80
2023-05-05T21:10:52.664Z,98.40
2023-05-05T21:13:20.831Z,97.80
2023-05-05T21:15:51.243Z,97.00
2023-05-05T21:18:20.716Z,98.10
2023-05-05T21:20:48.750Z,98.00
2023-05-05T21:23:16.797Z,98.20
2023-05-05T21:25:44.848Z,98.50
2023-05-05T21:28:12.855Z,97.80
2023-05-05T21:30:40.960Z,97.60
2023-05-05T21:33:09.006Z,97.90
2023-05-05T21:35:38.802Z,97.30
2023-05-05T21:38:06.896Z,97.20
2023-05-05T21:40:34.998Z,97.50
2023-05-05T21:43:03.033Z,97.50
2023-05-05T21:45:31.030Z,97.40
2023-05-05T21:47:59.123Z,96.50
2023-05-05T21:50:28.217Z,96.40
2023-05-05T21:52:59.032Z,96.60
2023-05-05T21:55:27.108Z,97.00
2023-05-05T21:57:55.102Z,96.60
2023-05-05T22:00:23.302Z,96.80
2023-05-05T22:02:51.443Z,96.00
2023-05-05T22:05:19.668Z,96.00
2023-05-05T22:07:47.784Z,96.60
2023-05-05T22:10:17.348Z,96.30
2023-05-05T22:12:45.434Z,96.40
2023-05-05T22:15:13.475Z,96.20
2023-05-05T22:17:41.582Z,96.00
2023-05-05T22:20:10.573Z,95.60
2023-05-05T22:22:38.734Z,96.00
2023-05-05T22:25:08.158Z,95.90
2023-05-05T22:27:37.904Z,95.90
2023-05-05T22:30:07.164Z,95.20
2023-05-05T22:32:35.332Z,95.40
2023-05-05T22:35:03.330Z,95.40
2023-05-05T22:37:31.508Z,95.20
2023-05-05T22:39:59.560Z,95.10
2023-05-05T22:42:27.634Z,95.30
2023-05-05T22:44:56.985Z,94.40
2023-05-05T22:47:25.107Z,94.90
2023-05-05T22:49:53.185Z,95.10
2023-05-05T22:52:21.252Z,94.80
2023-05-05T22:54:49.247Z,94.50
2023-05-05T22:57:17.230Z,94.60
2023-05-05T22:59:45.298Z,94.20
2023-05-05T23:02:14.819Z,94.70
2023-05-05T23:04:43.967Z,94.60
2023-05-05T23:07:12.895Z,94.10
2023-05-05T23:09:41.137Z,94.00
2023-05-05T23:12:09.229Z,93.80
2023-05-05T23:14:37.353Z,94.30
2023-05-05T23:17:05.688Z,93.90
2023-05-05T23:19:35.185Z,93.80
2023-05-05T23:22:03.520Z,94.20
2023-05-05T23:24:31.651Z,94.40
2023-05-05T23:27:01.848Z,94.10
2023-05-05T23:29:30.167Z,93.80
2023-05-05T23:31:58.422Z,93.60
2023-05-05T23:34:27.516Z,93.10
2023-05-05T23:36:57.049Z,93.90
2023-05-05T23:39:25.126Z,93.40
2023-05-05T23:41:53.631Z,93.70
2023-05-05T23:44:21.764Z,93.40
2023-05-05T23:46:49.719Z,93.10
2023-05-05T23:49:17.703Z,93.00
2023-05-05T23:51:45.871Z,93.10
2023-05-05T23:54:15.310Z,93.00
2023-05-05T23:56:43.483Z,93.10
2023-05-05T23:59:11.533Z,92.80
